N43XS KTOL-KAKR
Flight info
| Callsign | N43XS |
|---|---|
| Flight time | 0h 35m |
| Altitude | 19000 |
| Route | AKRON |
| Aircraft | BE9L/L-SBDFGRY/SB1 |
Departure
| Time | 2026-04-18 20:07 |
|---|---|
| Airport | Eugene F. Kranz Toledo Express Airport (KTOL) |
Arrival
| Time | 2026-04-18 20:42 |
|---|---|
| Airport | Akron Fulton International Airport (KAKR) |
| Time | Latitude | Longitude | Altitude | Speed | Heading |
|---|---|---|---|---|---|
| 2026-04-18 19:58 | 41.59061 | -83.80961 | 679 ft | 0 kts | 246° |
| 2026-04-18 20:03 | 41.59048 | -83.80964 | 680 ft | 8 kts | 159° |
| 2026-04-18 20:03 | 41.59024 | -83.80863 | 678 ft | 16 kts | 81° |
| 2026-04-18 20:04 | 41.59061 | -83.80724 | 678 ft | 16 kts | 68° |
| 2026-04-18 20:04 | 41.59106 | -83.80576 | 676 ft | 18 kts | 66° |
| 2026-04-18 20:04 | 41.59155 | -83.80422 | 675 ft | 18 kts | 69° |
| 2026-04-18 20:04 | 41.59208 | -83.80251 | 672 ft | 20 kts | 65° |
| 2026-04-18 20:05 | 41.59266 | -83.80072 | 672 ft | 20 kts | 67° |
| 2026-04-18 20:05 | 41.59322 | -83.79893 | 668 ft | 20 kts | 68° |
| 2026-04-18 20:05 | 41.59374 | -83.79722 | 668 ft | 19 kts | 65° |
| 2026-04-18 20:05 | 41.59404 | -83.79605 | 666 ft | 11 kts | 101° |
| 2026-04-18 20:06 | 41.59331 | -83.79553 | 665 ft | 12 kts | 163° |
| 2026-04-18 20:06 | 41.59254 | -83.79536 | 664 ft | 8 kts | 235° |
| 2026-04-18 20:06 | 41.59251 | -83.79546 | 665 ft | 0 kts | 248° |
| 2026-04-18 20:06 | 41.59214 | -83.79668 | 665 ft | 49 kts | 247° |
| 2026-04-18 20:07 | 41.59009 | -83.80312 | 844 ft | 82 kts | 254° |
| 2026-04-18 20:07 | 41.58797 | -83.81008 | 1184 ft | 97 kts | 254° |
| 2026-04-18 20:07 | 41.58508 | -83.81873 | 1662 ft | 106 kts | 248° |
| 2026-04-18 20:07 | 41.58099 | -83.82823 | 1982 ft | 123 kts | 248° |
| 2026-04-18 20:08 | 41.57648 | -83.83874 | 2309 ft | 135 kts | 248° |
| 2026-04-18 20:08 | 41.57193 | -83.84955 | 2830 ft | 132 kts | 248° |
| 2026-04-18 20:08 | 41.56724 | -83.86046 | 3260 ft | 135 kts | 248° |
| 2026-04-18 20:08 | 41.56089 | -83.86987 | 3687 ft | 149 kts | 214° |
| 2026-04-18 20:09 | 41.55009 | -83.87038 | 4176 ft | 168 kts | 170° |
| 2026-04-18 20:09 | 41.54087 | -83.86014 | 4597 ft | 185 kts | 126° |
| 2026-04-18 20:09 | 41.53642 | -83.84385 | 5021 ft | 189 kts | 112° |
| 2026-04-18 20:09 | 41.53255 | -83.82707 | 5457 ft | 189 kts | 113° |
| 2026-04-18 20:10 | 41.52885 | -83.81010 | 5842 ft | 191 kts | 112° |
| 2026-04-18 20:10 | 41.52534 | -83.79301 | 6258 ft | 191 kts | 112° |
| 2026-04-18 20:10 | 41.52199 | -83.77556 | 6611 ft | 193 kts | 113° |
| 2026-04-18 20:10 | 41.51881 | -83.75820 | 6984 ft | 194 kts | 112° |
| 2026-04-18 20:11 | 41.51572 | -83.74065 | 7325 ft | 196 kts | 112° |
| 2026-04-18 20:11 | 41.51268 | -83.72298 | 7666 ft | 199 kts | 112° |
| 2026-04-18 20:11 | 41.50972 | -83.70477 | 8112 ft | 198 kts | 112° |
| 2026-04-18 20:11 | 41.50693 | -83.68702 | 8500 ft | 198 kts | 112° |
| 2026-04-18 20:12 | 41.50412 | -83.66877 | 8867 ft | 200 kts | 112° |
| 2026-04-18 20:12 | 41.50153 | -83.65060 | 9256 ft | 199 kts | 112° |
| 2026-04-18 20:12 | 41.49892 | -83.63236 | 9626 ft | 200 kts | 112° |
| 2026-04-18 20:12 | 41.49641 | -83.61391 | 10072 ft | 201 kts | 112° |
| 2026-04-18 20:13 | 41.49392 | -83.59538 | 10428 ft | 204 kts | 112° |
| 2026-04-18 20:13 | 41.49131 | -83.57648 | 10775 ft | 207 kts | 112° |
| 2026-04-18 20:13 | 41.48816 | -83.55798 | 11107 ft | 207 kts | 115° |
| 2026-04-18 20:13 | 41.48486 | -83.53938 | 11530 ft | 205 kts | 116° |
| 2026-04-18 20:14 | 41.48149 | -83.52095 | 11882 ft | 208 kts | 115° |
| 2026-04-18 20:14 | 41.47810 | -83.50211 | 12244 ft | 210 kts | 115° |
| 2026-04-18 20:14 | 41.47467 | -83.48333 | 12644 ft | 209 kts | 116° |
| 2026-04-18 20:14 | 41.47123 | -83.46445 | 13104 ft | 210 kts | 116° |
| 2026-04-18 20:15 | 41.46772 | -83.44544 | 13517 ft | 213 kts | 115° |
| 2026-04-18 20:15 | 41.46422 | -83.42626 | 14031 ft | 211 kts | 115° |
| 2026-04-18 20:15 | 41.46071 | -83.40695 | 14486 ft | 215 kts | 115° |
| 2026-04-18 20:15 | 41.45721 | -83.38791 | 14981 ft | 214 kts | 115° |
| 2026-04-18 20:16 | 41.45362 | -83.36845 | 15414 ft | 216 kts | 116° |
| 2026-04-18 20:16 | 41.45010 | -83.34924 | 15884 ft | 215 kts | 117° |
| 2026-04-18 20:16 | 41.44646 | -83.32954 | 16282 ft | 218 kts | 118° |
| 2026-04-18 20:16 | 41.44275 | -83.30959 | 16666 ft | 221 kts | 118° |
| 2026-04-18 20:17 | 41.43919 | -83.29006 | 17099 ft | 218 kts | 119° |
| 2026-04-18 20:17 | 41.43550 | -83.27017 | 17527 ft | 220 kts | 120° |
| 2026-04-18 20:17 | 41.43185 | -83.25043 | 17977 ft | 221 kts | 121° |
| 2026-04-18 20:17 | 41.42810 | -83.23036 | 18392 ft | 224 kts | 120° |
| 2026-04-18 20:18 | 41.42448 | -83.21072 | 18865 ft | 220 kts | 120° |
| 2026-04-18 20:18 | 41.42058 | -83.19029 | 18933 ft | 242 kts | 119° |
| 2026-04-18 20:18 | 41.41623 | -83.16715 | 18893 ft | 264 kts | 117° |
| 2026-04-18 20:18 | 41.41173 | -83.14292 | 18883 ft | 277 kts | 117° |
| 2026-04-18 20:19 | 41.40696 | -83.11733 | 18879 ft | 286 kts | 115° |
| 2026-04-18 20:19 | 41.40219 | -83.09167 | 18884 ft | 293 kts | 116° |
| 2026-04-18 20:19 | 41.39723 | -83.06499 | 18878 ft | 298 kts | 115° |
| 2026-04-18 20:19 | 41.39214 | -83.03786 | 18867 ft | 302 kts | 114° |
| 2026-04-18 20:20 | 41.38706 | -83.01056 | 18885 ft | 305 kts | 115° |
| 2026-04-18 20:20 | 41.38187 | -82.98296 | 18868 ft | 307 kts | 115° |
| 2026-04-18 20:20 | 41.37670 | -82.95545 | 18858 ft | 308 kts | 115° |
| 2026-04-18 20:20 | 41.37149 | -82.92770 | 18858 ft | 300 kts | 115° |
| 2026-04-18 20:21 | 41.36651 | -82.90128 | 18858 ft | 297 kts | 115° |
| 2026-04-18 20:21 | 41.36148 | -82.87451 | 18861 ft | 295 kts | 115° |
| 2026-04-18 20:21 | 41.35641 | -82.84769 | 18871 ft | 296 kts | 115° |
| 2026-04-18 20:21 | 41.35142 | -82.82139 | 18861 ft | 295 kts | 115° |
| 2026-04-18 20:22 | 41.34634 | -82.79462 | 18856 ft | 295 kts | 115° |
| 2026-04-18 20:22 | 41.34133 | -82.76819 | 18862 ft | 296 kts | 115° |
| 2026-04-18 20:22 | 41.33626 | -82.74144 | 18853 ft | 296 kts | 116° |
| 2026-04-18 20:22 | 41.33118 | -82.71491 | 18857 ft | 296 kts | 115° |
| 2026-04-18 20:23 | 41.32613 | -82.68842 | 18859 ft | 295 kts | 115° |
| 2026-04-18 20:23 | 41.32107 | -82.66182 | 18850 ft | 296 kts | 115° |
| 2026-04-18 20:23 | 41.31599 | -82.63527 | 18852 ft | 297 kts | 115° |
| 2026-04-18 20:23 | 41.31085 | -82.60857 | 18855 ft | 297 kts | 115° |
| 2026-04-18 20:24 | 41.30574 | -82.58171 | 18855 ft | 297 kts | 115° |
| 2026-04-18 20:24 | 41.30065 | -82.55513 | 18857 ft | 298 kts | 115° |
| 2026-04-18 20:24 | 41.29548 | -82.52845 | 18855 ft | 298 kts | 114° |
| 2026-04-18 20:24 | 41.29033 | -82.50163 | 18856 ft | 299 kts | 115° |
| 2026-04-18 20:25 | 41.28515 | -82.47474 | 18846 ft | 299 kts | 115° |
| 2026-04-18 20:25 | 41.27996 | -82.44799 | 18853 ft | 299 kts | 115° |
| 2026-04-18 20:25 | 41.27478 | -82.42097 | 18843 ft | 299 kts | 114° |
| 2026-04-18 20:25 | 41.26959 | -82.39422 | 18836 ft | 298 kts | 114° |
| 2026-04-18 20:26 | 41.26453 | -82.36780 | 18591 ft | 292 kts | 115° |
| 2026-04-18 20:26 | 41.25951 | -82.34214 | 18236 ft | 286 kts | 115° |
| 2026-04-18 20:26 | 41.25451 | -82.31625 | 17823 ft | 282 kts | 116° |
| 2026-04-18 20:26 | 41.24955 | -82.29100 | 17448 ft | 279 kts | 116° |
| 2026-04-18 20:27 | 41.24475 | -82.26645 | 17086 ft | 276 kts | 115° |
| 2026-04-18 20:27 | 41.23994 | -82.24173 | 16716 ft | 273 kts | 115° |
| 2026-04-18 20:27 | 41.23519 | -82.21726 | 16324 ft | 269 kts | 115° |
| 2026-04-18 20:27 | 41.23052 | -82.19336 | 15939 ft | 264 kts | 114° |
| 2026-04-18 20:28 | 41.22597 | -82.17009 | 15567 ft | 260 kts | 115° |
| 2026-04-18 20:28 | 41.22143 | -82.14705 | 15191 ft | 257 kts | 114° |
| 2026-04-18 20:28 | 41.21698 | -82.12428 | 14827 ft | 254 kts | 113° |
| 2026-04-18 20:28 | 41.21247 | -82.10145 | 14436 ft | 251 kts | 113° |
| 2026-04-18 20:29 | 41.20807 | -82.07902 | 14062 ft | 249 kts | 113° |
| 2026-04-18 20:29 | 41.20380 | -82.05722 | 13713 ft | 246 kts | 113° |
| 2026-04-18 20:29 | 41.19944 | -82.03513 | 13365 ft | 245 kts | 112° |
| 2026-04-18 20:29 | 41.19513 | -82.01320 | 12973 ft | 243 kts | 112° |
| 2026-04-18 20:30 | 41.19090 | -81.99171 | 12613 ft | 241 kts | 112° |
| 2026-04-18 20:30 | 41.18666 | -81.97033 | 12237 ft | 240 kts | 113° |
| 2026-04-18 20:30 | 41.18244 | -81.94889 | 11883 ft | 239 kts | 113° |
| 2026-04-18 20:30 | 41.17820 | -81.92763 | 11518 ft | 237 kts | 113° |
| 2026-04-18 20:31 | 41.17403 | -81.90651 | 11156 ft | 236 kts | 114° |
| 2026-04-18 20:31 | 41.16988 | -81.88563 | 10779 ft | 234 kts | 113° |
| 2026-04-18 20:31 | 41.16574 | -81.86475 | 10424 ft | 233 kts | 114° |
| 2026-04-18 20:31 | 41.16164 | -81.84411 | 10071 ft | 232 kts | 114° |
| 2026-04-18 20:32 | 41.15750 | -81.82338 | 9687 ft | 231 kts | 114° |
| 2026-04-18 20:32 | 41.15342 | -81.80299 | 9309 ft | 230 kts | 114° |
| 2026-04-18 20:32 | 41.14932 | -81.78249 | 8938 ft | 229 kts | 113° |
| 2026-04-18 20:32 | 41.14523 | -81.76193 | 8566 ft | 228 kts | 112° |
| 2026-04-18 20:33 | 41.14114 | -81.74153 | 8188 ft | 228 kts | 113° |
| 2026-04-18 20:33 | 41.13708 | -81.72128 | 7821 ft | 227 kts | 111° |
| 2026-04-18 20:33 | 41.13305 | -81.70101 | 7453 ft | 227 kts | 112° |
| 2026-04-18 20:33 | 41.12893 | -81.68057 | 7075 ft | 227 kts | 111° |
| 2026-04-18 20:34 | 41.12495 | -81.66067 | 6712 ft | 226 kts | 111° |
| 2026-04-18 20:34 | 41.12087 | -81.64040 | 6335 ft | 226 kts | 111° |
| 2026-04-18 20:34 | 41.11681 | -81.62029 | 5965 ft | 225 kts | 110° |
| 2026-04-18 20:34 | 41.11279 | -81.60030 | 5600 ft | 225 kts | 110° |
| 2026-04-18 20:35 | 41.10876 | -81.58037 | 5232 ft | 224 kts | 109° |
| 2026-04-18 20:35 | 41.10475 | -81.56044 | 4864 ft | 224 kts | 109° |
| 2026-04-18 20:35 | 41.09929 | -81.54126 | 4488 ft | 223 kts | 112° |
| 2026-04-18 20:35 | 41.09462 | -81.52153 | 4123 ft | 225 kts | 110° |
| 2026-04-18 20:36 | 41.08957 | -81.50135 | 3762 ft | 239 kts | 111° |
| 2026-04-18 20:36 | 41.08400 | -81.47978 | 3403 ft | 251 kts | 111° |
| 2026-04-18 20:36 | 41.07818 | -81.45791 | 3077 ft | 248 kts | 111° |
| 2026-04-18 20:36 | 41.07379 | -81.43755 | 2983 ft | 214 kts | 93° |
| 2026-04-18 20:37 | 41.07746 | -81.42020 | 2993 ft | 182 kts | 60° |
| 2026-04-18 20:37 | 41.08273 | -81.40530 | 2993 ft | 173 kts | 60° |
| 2026-04-18 20:37 | 41.08773 | -81.39126 | 2993 ft | 166 kts | 60° |
| 2026-04-18 20:37 | 41.09262 | -81.37737 | 3001 ft | 169 kts | 61° |
| 2026-04-18 20:38 | 41.09792 | -81.36234 | 3007 ft | 188 kts | 61° |
| 2026-04-18 20:38 | 41.10069 | -81.34493 | 2998 ft | 203 kts | 99° |
| 2026-04-18 20:38 | 41.09445 | -81.32882 | 2996 ft | 184 kts | 145° |
| 2026-04-18 20:38 | 41.08423 | -81.32319 | 2988 ft | 138 kts | 191° |
| 2026-04-18 20:39 | 41.07668 | -81.32723 | 2996 ft | 111 kts | 237° |
| 2026-04-18 20:39 | 41.07461 | -81.33688 | 3000 ft | 114 kts | 272° |
| 2026-04-18 20:39 | 41.07493 | -81.34791 | 3002 ft | 123 kts | 272° |
| 2026-04-18 20:39 | 41.07529 | -81.35957 | 2998 ft | 129 kts | 272° |
| 2026-04-18 20:40 | 41.07490 | -81.37160 | 2986 ft | 134 kts | 255° |
| 2026-04-18 20:40 | 41.07133 | -81.38313 | 2659 ft | 139 kts | 248° |
| 2026-04-18 20:40 | 41.06703 | -81.39452 | 2257 ft | 128 kts | 244° |
| 2026-04-18 20:40 | 41.06330 | -81.40387 | 1865 ft | 105 kts | 241° |
| 2026-04-18 20:41 | 41.05981 | -81.41250 | 1646 ft | 107 kts | 242° |
| 2026-04-18 20:41 | 41.05672 | -81.42043 | 1624 ft | 89 kts | 240° |
| 2026-04-18 20:41 | 41.05361 | -81.42750 | 1556 ft | 88 kts | 239° |
| 2026-04-18 20:41 | 41.05064 | -81.43466 | 1487 ft | 89 kts | 242° |
| 2026-04-18 20:42 | 41.04782 | -81.44186 | 1392 ft | 87 kts | 242° |
| 2026-04-18 20:42 | 41.04485 | -81.44924 | 1291 ft | 92 kts | 242° |
| 2026-04-18 20:42 | 41.04180 | -81.45684 | 1121 ft | 92 kts | 241° |
| 2026-04-18 20:42 | 41.03920 | -81.46324 | 1039 ft | 48 kts | 242° |
| 2026-04-18 20:43 | 41.03816 | -81.46584 | 1039 ft | 23 kts | 242° |
| 2026-04-18 20:43 | 41.03774 | -81.46694 | 1040 ft | 3 kts | 261° |
| 2026-04-18 20:43 | 41.03779 | -81.46719 | 1041 ft | 7 kts | 307° |
| 2026-04-18 20:43 | 41.03854 | -81.46775 | 1041 ft | 6 kts | 347° |
| 2026-04-18 20:44 | 41.03887 | -81.46722 | 1040 ft | 8 kts | 66° |
| 2026-04-18 20:44 | 41.03912 | -81.46660 | 1038 ft | 6 kts | 64° |
| 2026-04-18 20:44 | 41.03926 | -81.46623 | 1038 ft | 2 kts | 62° |
| 2026-04-18 20:44 | 41.03934 | -81.46606 | 1038 ft | 4 kts | 50° |
| 2026-04-18 20:45 | 41.03986 | -81.46626 | 1038 ft | 10 kts | 333° |
| 2026-04-18 20:45 | 41.04035 | -81.46661 | 1039 ft | 4 kts | 331° |
| 2026-04-18 20:45 | 41.04037 | -81.46662 | 1039 ft | 0 kts | 331° |